Time;durP1;ratioP1;P1;durP2;ratioP2;P2;SDS_P1;SDS_P2;PMS_P1;PMS_P2;Temp;Humidity;BMP_temperature;BMP_pressure;BME280_temperature;BME280_humidity;BME280_pressure;Samples;Min_cycle;Max_cycle;Signal;HPM_P1;HPM_P2
2021/11/10 00:01:54;;;;;;;10.53;8.00;;;2.20;93.20;;;0.69;96.30;98864.59;5062424;28;20572;-71
2021/11/10 00:04:23;;;;;;;8.20;7.30;;;2.20;92.80;;;0.54;96.50;98872.91;5071528;28;20892;-71
2021/11/10 00:06:50;;;;;;;11.33;8.30;;;2.10;92.80;;;0.44;96.49;98877.31;5075679;28;20829;-71
2021/11/10 00:09:18;;;;;;;11.27;7.37;;;2.00;93.50;;;0.50;97.14;98891.91;5069370;28;20522;-71
2021/11/10 00:11:45;;;;;;;10.17;8.53;;;2.00;94.40;;;0.37;98.15;98890.28;5067163;28;21115;-71
2021/11/10 00:14:12;;;;;;;9.50;7.83;;;1.90;94.90;;;0.36;98.27;98896.56;5066435;28;20997;-71
2021/11/10 00:16:40;;;;;;;9.67;7.53;;;1.80;96.10;;;0.36;98.78;98901.88;5063965;28;20455;-71
2021/11/10 00:19:07;;;;;;;13.20;7.90;;;1.80;97.20;;;0.47;98.10;98902.81;5052550;28;20963;-72
2021/11/10 00:21:36;;;;;;;9.80;7.90;;;1.90;97.70;;;0.37;98.24;98905.38;5067375;28;20802;-71
2021/11/10 00:24:03;;;;;;;10.33;8.37;;;1.80;96.50;;;0.35;98.44;98900.19;5068312;28;20449;-71
2021/11/10 00:26:30;;;;;;;12.17;7.50;;;1.80;97.00;;;0.68;97.20;98900.97;5058242;28;20530;-72
2021/11/10 00:28:57;;;;;;;8.67;7.77;;;2.00;97.20;;;0.63;96.66;98899.69;5052779;28;20465;-71
2021/11/10 00:31:24;;;;;;;8.63;7.50;;;2.00;95.10;;;0.51;97.03;98905.06;5067806;28;20897;-71
2021/11/10 00:33:51;;;;;;;9.43;7.23;;;2.10;94.60;;;0.76;96.44;98894.16;5068513;28;20460;-71
2021/11/10 00:36:19;;;;;;;8.43;7.30;;;2.10;94.90;;;0.93;95.79;98898.03;5074057;28;20485;-71
2021/11/10 00:38:48;;;;;;;8.93;8.00;;;2.30;93.30;;;0.95;94.91;98886.28;5072439;28;20970;-70
2021/11/10 00:41:15;;;;;;;7.80;7.00;;;2.40;91.90;;;0.91;94.95;98884.03;5071293;28;20553;-71
2021/11/10 00:43:42;;;;;;;12.20;7.67;;;2.40;91.40;;;0.82;95.06;98880.34;5069058;28;20560;-70
2021/11/10 00:46:10;;;;;;;11.07;8.43;;;2.40;91.20;;;0.80;95.24;98888.44;5076694;28;20460;-71
2021/11/10 00:48:37;;;;;;;9.43;8.40;;;2.30;91.20;;;0.61;95.29;98867.91;5073748;28;20461;-71
2021/11/10 00:51:04;;;;;;;9.50;7.83;;;2.20;91.80;;;0.78;95.21;98884.25;5074047;28;20642;-71
2021/11/10 00:53:31;;;;;;;10.37;8.17;;;2.30;91.90;;;0.74;95.07;98882.81;5054008;28;20489;-71
2021/11/10 00:56:00;;;;;;;9.30;7.23;;;2.30;91.60;;;0.69;95.17;98891.19;5070819;28;20564;-71
2021/11/10 00:58:27;;;;;;;10.73;7.80;;;2.30;91.70;;;0.61;95.88;98878.56;5069404;28;20543;-72
2021/11/10 01:00:54;;;;;;;13.13;8.30;;;2.20;91.80;;;0.52;95.46;98881.97;5069195;28;20465;-72
2021/11/10 01:03:23;;;;;;;10.00;8.13;;;2.20;91.60;;;0.44;96.62;98881.78;5055303;28;20510;-70
2021/11/10 01:05:50;;;;;;;9.00;7.70;;;2.00;92.20;;;0.49;96.46;98883.06;5050255;28;20472;-71
2021/11/10 01:08:18;;;;;;;9.30;8.23;;;2.00;93.10;;;0.33;96.65;98882.69;5051118;28;20477;-70
2021/11/10 01:10:46;;;;;;;11.10;8.20;;;1.90;93.00;;;0.16;97.55;98878.78;5045068;28;20528;-71
2021/11/10 01:13:14;;;;;;;10.90;8.47;;;1.70;93.70;;;0.44;97.59;98881.78;5056378;28;20453;-69
2021/11/10 01:15:42;;;;;;;11.13;7.93;;;1.80;95.80;;;0.42;96.89;98884.56;5074712;28;20839;-70
2021/11/10 01:18:09;;;;;;;13.07;8.70;;;1.90;94.30;;;0.37;97.25;98871.66;5068430;28;20488;-70
2021/11/10 01:20:37;;;;;;;10.70;7.63;;;1.90;94.30;;;0.39;97.15;98869.72;5070256;28;20543;-71
2021/11/10 01:23:05;;;;;;;11.97;8.77;;;1.90;94.90;;;0.47;96.73;98871.72;5054010;28;20567;-73
2021/11/10 01:25:32;;;;;;;11.47;8.50;;;2.00;93.80;;;0.38;97.11;98877.81;5051723;28;20448;-71
2021/11/10 01:27:59;;;;;;;9.40;7.60;;;1.90;93.60;;;0.49;97.06;98868.94;5066793;28;20552;-71
2021/11/10 01:30:28;;;;;;;11.80;9.43;;;2.00;94.80;;;0.32;97.08;98865.03;5049295;28;20544;-71
2021/11/10 01:32:55;;;;;;;10.93;7.73;;;1.90;93.80;;;0.45;96.79;98884.31;5068779;28;20453;-71
2021/11/10 01:35:22;;;;;;;11.67;8.00;;;1.90;94.00;;;0.36;96.67;98877.09;5067256;28;20547;-72
2021/11/10 01:37:49;;;;;;;14.80;8.93;;;1.90;93.10;;;0.24;96.78;98866.53;5066273;28;20551;-71
2021/11/10 01:40:20;;;;;;;8.90;7.97;;;1.80;93.30;;;0.16;97.34;98869.00;5072037;28;21031;-71
2021/11/10 01:42:49;;;;;;;15.63;9.13;;;1.70;93.60;;;0.12;96.98;98862.25;5041180;28;20453;-71
2021/11/10 01:45:19;;;;;;;13.40;8.40;;;1.70;93.80;;;-0.01;97.03;98857.94;5066117;28;21018;-72
2021/11/10 01:47:48;;;;;;;13.40;9.73;;;1.60;93.60;;;0.03;97.02;98852.38;5071767;28;20604;-71
2021/11/10 01:50:19;;;;;;;13.87;9.80;;;1.50;94.30;;;0.04;97.72;98852.25;5074816;28;20453;-71
2021/11/10 01:52:47;;;;;;;11.70;9.80;;;1.50;94.80;;;-0.02;97.38;98840.31;5068859;28;20564;-72
2021/11/10 01:55:16;;;;;;;14.90;10.83;;;1.50;94.40;;;-0.07;97.09;98850.50;5070857;28;20552;-72
2021/11/10 01:57:43;;;;;;;14.43;10.83;;;1.40;94.40;;;-0.10;97.43;98850.72;5052414;28;20532;-72
2021/11/10 02:00:16;;;;;;;13.93;10.13;;;1.40;94.50;;;-0.08;97.63;98845.28;5065089;28;20513;-71
2021/11/10 02:02:43;;;;;;;13.27;10.57;;;1.50;94.70;;;-0.06;97.73;98854.84;5072475;28;20512;-72
2021/11/10 02:05:15;;;;;;;13.27;10.00;;;1.50;94.70;;;-0.05;97.53;98851.22;5052040;28;20539;-72
2021/11/10 02:07:43;;;;;;;13.40;9.17;;;1.50;94.40;;;-0.11;97.50;98830.44;5068935;28;20469;-72
2021/11/10 02:10:13;;;;;;;11.23;8.40;;;1.50;94.50;;;0.02;97.41;98837.41;5052971;28;20493;-72
2021/11/10 02:12:41;;;;;;;15.20;8.87;;;1.60;94.60;;;0.01;97.20;98836.56;5069546;28;20538;-71
2021/11/10 02:15:11;;;;;;;13.60;9.10;;;1.50;94.40;;;0.03;97.53;98831.13;5067248;28;20457;-72
2021/11/10 02:17:38;;;;;;;12.63;9.07;;;1.60;94.50;;;-0.06;97.35;98828.25;5056129;28;20453;-71
2021/11/10 02:20:09;;;;;;;10.33;8.60;;;1.50;93.70;;;-0.07;97.71;98833.69;5059383;28;20982;-70
2021/11/10 02:22:39;;;;;;;11.17;8.40;;;1.50;93.60;;;-0.12;97.99;98827.94;5071074;28;20560;-71
2021/11/10 02:25:10;;;;;;;10.27;7.80;;;1.40;94.70;;;-0.18;98.07;98824.78;5066390;28;20569;-70
2021/11/10 02:27:39;;;;;;;14.27;8.50;;;1.40;94.80;;;-0.05;97.79;98815.81;5066604;28;20579;-71
2021/11/10 02:30:10;;;;;;;10.80;7.80;;;1.40;95.60;;;-0.25;97.63;98813.00;5048082;28;20475;-72
2021/11/10 02:32:38;;;;;;;11.23;9.07;;;1.40;94.50;;;-0.10;97.52;98799.41;5062623;28;20458;-71
2021/11/10 02:35:07;;;;;;;11.30;8.40;;;1.40;95.80;;;-0.29;97.74;98796.47;5065158;28;21775;-71
2021/11/10 02:37:35;;;;;;;8.77;7.87;;;1.30;94.60;;;-0.26;97.91;98782.09;5057731;28;20557;-71
2021/11/10 02:40:05;;;;;;;10.37;8.07;;;1.30;96.20;;;-0.09;97.72;98787.81;5064586;28;21091;-71
2021/11/10 02:42:32;;;;;;;9.73;7.90;;;1.40;95.00;;;-0.06;97.13;98783.09;5055993;28;20472;-72
2021/11/10 02:44:59;;;;;;;10.00;7.90;;;1.50;94.20;;;-0.07;97.50;98781.41;5049342;28;20536;-71
2021/11/10 02:47:26;;;;;;;13.53;8.60;;;1.50;93.90;;;-0.12;97.23;98801.38;5064446;28;20463;-72
2021/11/10 02:49:53;;;;;;;12.13;8.60;;;1.50;94.00;;;-0.10;97.25;98810.03;5068268;28;20507;-72
2021/11/10 02:52:21;;;;;;;8.73;7.63;;;1.50;94.10;;;-0.07;97.32;98804.47;5054317;28;20591;-72
2021/11/10 02:54:52;;;;;;;10.90;8.80;;;1.50;94.60;;;-0.07;97.52;98801.81;5067536;28;21036;-73
2021/11/10 02:57:22;;;;;;;8.10;7.03;;;1.50;93.60;;;-0.20;97.41;98796.69;5043188;28;20458;-72
2021/11/10 02:59:49;;;;;;;8.93;7.90;;;1.40;93.60;;;-0.29;97.83;98799.13;5063145;28;20460;-72
2021/11/10 03:02:24;;;;;;;10.60;8.07;;;1.30;93.70;;;-0.19;97.98;98790.41;5065695;28;20571;-71
2021/11/10 03:04:51;;;;;;;11.73;8.03;;;1.30;96.50;;;-0.15;97.83;98786.50;5067690;28;20460;-72
2021/11/10 03:07:18;;;;;;;9.50;7.37;;;1.40;94.80;;;-0.13;97.49;98767.81;5064364;28;20540;-72
2021/11/10 03:09:45;;;;;;;10.00;8.27;;;1.40;94.70;;;-0.15;97.80;98786.50;5048992;28;20482;-72
2021/11/10 03:12:15;;;;;;;13.40;8.50;;;1.40;94.10;;;-0.01;97.50;98778.22;5048223;28;20477;-72
2021/11/10 03:14:46;;;;;;;11.20;7.87;;;1.50;94.00;;;-0.04;97.27;98783.81;5062826;28;20580;-72
2021/11/10 03:17:16;;;;;;;10.40;8.30;;;1.50;93.40;;;-0.27;97.58;98779.56;5047919;28;21063;-72
2021/11/10 03:19:44;;;;;;;11.87;8.73;;;1.40;93.20;;;-0.40;97.79;98740.75;5049641;28;20548;-72
2021/11/10 03:22:17;;;;;;;11.10;9.20;;;1.40;95.00;;;-0.04;97.76;98778.50;5061944;28;20556;-72
2021/11/10 03:24:44;;;;;;;11.27;8.03;;;1.50;94.70;;;-0.12;97.73;98770.31;5060484;28;20458;-69
2021/11/10 03:27:12;;;;;;;10.30;8.73;;;1.50;94.30;;;-0.09;97.61;98772.69;5073316;28;20543;-72
2021/11/10 03:29:40;;;;;;;10.17;7.60;;;1.50;94.20;;;-0.05;97.41;98766.19;5071435;28;20469;-72
2021/11/10 03:32:12;;;;;;;9.00;7.60;;;1.50;93.90;;;-0.17;96.95;98769.88;5051473;28;20461;-72
2021/11/10 03:34:39;;;;;;;12.50;8.10;;;1.50;93.00;;;-0.33;98.43;98768.50;5064168;28;20453;-71
2021/11/10 03:37:06;;;;;;;12.80;8.27;;;1.30;93.80;;;-0.19;97.99;98774.47;5073605;28;20468;-71
2021/11/10 03:39:33;;;;;;;11.33;7.57;;;1.30;95.40;;;-0.29;98.41;98783.19;5061013;28;20445;-72
2021/11/10 03:42:01;;;;;;;12.77;8.20;;;1.30;95.30;;;-0.22;98.41;98785.34;5071230;28;20467;-72
2021/11/10 03:44:28;;;;;;;10.47;8.60;;;1.30;96.30;;;-0.30;98.60;98776.19;5067639;28;20561;-72
2021/11/10 03:46:55;;;;;;;11.53;8.10;;;1.30;95.80;;;-0.27;98.57;98779.56;5069413;28;20500;-72
2021/11/10 03:49:25;;;;;;;9.40;8.30;;;1.30;96.30;;;-0.36;99.09;98773.19;5069045;28;20578;-72
2021/11/10 03:51:53;;;;;;;12.67;8.27;;;1.20;96.20;;;-0.34;98.48;98771.25;5054636;28;20488;-71
2021/11/10 03:54:20;;;;;;;14.57;9.47;;;1.20;96.70;;;-0.29;98.68;98777.06;5070905;28;20491;-72
2021/11/10 03:56:48;;;;;;;13.60;8.53;;;1.20;96.70;;;-0.43;99.12;98778.19;5060357;28;20482;-74
2021/11/10 03:59:15;;;;;;;11.20;8.43;;;1.10;96.10;;;-0.28;98.97;98773.41;5049425;28;20536;-71
2021/11/10 04:01:43;;;;;;;10.87;8.57;;;1.10;98.90;;;-0.34;99.04;98761.50;5062492;28;20536;-71
2021/11/10 04:04:10;;;;;;;10.83;8.77;;;1.10;98.40;;;-0.41;98.66;98770.09;5069227;28;20463;-71
2021/11/10 04:06:38;;;;;;;12.97;8.53;;;1.10;97.20;;;-0.40;98.71;98767.28;5075070;28;20952;-71
2021/11/10 04:09:06;;;;;;;11.63;9.00;;;1.10;98.00;;;-0.35;98.63;98770.44;5070147;28;20551;-71
2021/11/10 04:11:33;;;;;;;11.53;8.20;;;1.20;96.20;;;-0.54;98.77;98765.78;5069150;28;20449;-73
2021/11/10 04:14:02;;;;;;;12.47;9.20;;;1.10;95.60;;;-0.50;99.42;98777.00;5054541;28;20548;-72
2021/11/10 04:16:29;;;;;;;11.33;8.47;;;1.10;97.10;;;-0.40;99.49;98764.63;5069881;28;20521;-71
2021/11/10 04:18:58;;;;;;;10.67;9.00;;;1.10;98.70;;;-0.42;99.01;98769.25;5065321;28;20467;-71
2021/11/10 04:21:26;;;;;;;13.03;8.60;;;1.10;97.80;;;-0.31;97.94;98758.56;5051306;28;20960;-71
2021/11/10 04:23:57;;;;;;;10.27;8.53;;;1.20;96.60;;;-0.23;98.08;98749.97;5069938;28;21206;-71
2021/11/10 04:26:27;;;;;;;13.33;8.17;;;1.30;95.40;;;-0.32;97.46;98756.03;5067087;28;21383;-72
2021/11/10 04:28:54;;;;;;;12.23;7.70;;;1.30;94.30;;;-0.31;97.40;98760.38;5059095;28;20473;-72
2021/11/10 04:31:22;;;;;;;10.20;7.40;;;1.30;94.10;;;-0.73;97.09;98692.13;5051482;28;20457;-72
2021/11/10 04:33:49;;;;;;;10.20;7.90;;;1.30;93.50;;;-0.50;97.73;98747.81;5056524;28;20498;-73
2021/11/10 04:36:17;;;;;;;9.33;7.27;;;1.20;93.50;;;-0.43;98.02;98773.72;5065490;28;20542;-72
2021/11/10 04:38:45;;;;;;;11.30;8.53;;;1.20;94.30;;;-0.37;97.60;98771.53;5052361;28;20437;-71
2021/11/10 04:41:14;;;;;;;8.73;7.57;;;1.20;94.00;;;-0.40;97.77;98769.13;5066946;28;20468;-70
2021/11/10 04:43:42;;;;;;;9.53;7.73;;;1.20;93.80;;;-0.42;97.41;98766.59;5063665;28;20560;-71
2021/11/10 04:46:12;;;;;;;12.60;8.63;;;1.20;93.80;;;-0.49;98.05;98763.59;5068095;28;20611;-70
2021/11/10 04:48:40;;;;;;;10.30;8.37;;;1.20;93.70;;;-0.42;97.56;98766.59;5053930;28;20491;-71
2021/11/10 04:51:10;;;;;;;11.50;8.70;;;1.20;93.70;;;-0.50;97.77;98774.34;5065571;28;20472;-71
2021/11/10 04:53:39;;;;;;;11.80;8.27;;;1.20;93.30;;;-0.50;97.52;98771.69;5051894;28;20473;-71
2021/11/10 04:56:07;;;;;;;14.30;9.27;;;1.10;93.70;;;-0.48;97.57;98765.28;5065681;28;20469;-71
2021/11/10 04:58:36;;;;;;;10.47;8.13;;;1.10;93.70;;;-0.42;96.84;98769.25;5067901;28;20452;-70
2021/11/10 05:01:04;;;;;;;9.80;8.10;;;1.20;93.50;;;-0.42;96.58;98771.88;5053119;28;20548;-70
2021/11/10 05:03:31;;;;;;;11.87;8.87;;;1.20;92.90;;;-0.40;96.65;98775.25;5067325;28;21014;-71
2021/11/10 05:05:58;;;;;;;10.40;8.43;;;1.20;92.20;;;-0.43;96.32;98775.53;5060278;28;20457;-72
2021/11/10 05:08:25;;;;;;;12.10;8.87;;;1.10;92.10;;;-0.44;96.01;98772.03;5050676;28;20441;-73
2021/11/10 05:10:52;;;;;;;10.20;8.47;;;1.20;91.80;;;-0.44;95.99;98776.50;5059200;28;20457;-73
2021/11/10 05:13:20;;;;;;;13.00;9.00;;;1.10;92.00;;;-0.47;96.15;98764.28;5062091;28;20551;-72
2021/11/10 05:15:48;;;;;;;11.67;8.20;;;1.10;91.90;;;-0.55;96.06;98763.25;5065781;28;20858;-72
2021/11/10 05:18:15;;;;;;;13.40;7.67;;;1.10;91.90;;;-0.77;97.07;98765.00;5059955;28;20515;-72
2021/11/10 05:20:44;;;;;;;10.27;7.47;;;0.90;92.20;;;-0.81;97.77;98769.72;5048886;28;20465;-72
2021/11/10 05:23:11;;;;;;;9.97;8.47;;;0.80;93.30;;;-0.63;97.25;98762.06;5068727;28;20459;-72
2021/11/10 05:25:38;;;;;;;12.20;8.27;;;0.90;94.20;;;-0.66;97.38;98770.31;5049227;28;20556;-72
2021/11/10 05:28:05;;;;;;;8.10;7.30;;;0.90;93.50;;;-0.58;96.90;98774.97;5064198;28;20456;-71
2021/11/10 05:30:32;;;;;;;10.13;8.00;;;0.90;93.70;;;-0.52;96.51;98771.00;5072555;28;20572;-72
2021/11/10 05:33:00;;;;;;;12.20;8.40;;;1.00;93.40;;;-0.57;97.10;98777.50;5064025;28;21005;-71
2021/11/10 05:35:27;;;;;;;9.53;8.10;;;1.00;92.80;;;-0.49;96.78;98778.69;5069260;28;20549;-71
2021/11/10 05:37:54;;;;;;;13.93;9.03;;;1.00;93.10;;;-0.48;96.84;98770.59;5073508;28;20541;-72
2021/11/10 05:40:21;;;;;;;10.00;8.60;;;1.10;92.60;;;-0.53;97.11;98758.66;5066141;28;20472;-70
2021/11/10 05:42:48;;;;;;;9.03;7.33;;;1.10;92.70;;;-0.49;96.51;98768.06;5067632;28;20457;-71
2021/11/10 05:45:16;;;;;;;10.63;9.50;;;1.10;92.90;;;-0.53;97.76;98770.13;5067564;28;20469;-70
2021/11/10 05:47:42;;;;;;;13.53;8.60;;;1.00;93.30;;;-0.58;98.24;98770.50;5065457;28;20537;-71
2021/11/10 05:50:11;;;;;;;10.13;8.60;;;1.00;95.00;;;-0.54;98.07;98772.91;5061025;28;20591;-70
2021/11/10 05:52:41;;;;;;;15.13;9.50;;;1.00;96.00;;;-0.68;98.44;98753.66;5068460;28;20579;-71
2021/11/10 05:55:09;;;;;;;10.90;8.90;;;1.00;96.20;;;-0.50;98.58;98777.84;5062180;28;20460;-70
2021/11/10 05:57:38;;;;;;;11.73;10.17;;;1.00;96.10;;;-0.31;98.47;98777.16;5073989;28;20457;-71
2021/11/10 06:00:09;;;;;;;12.60;9.40;;;1.20;97.20;;;-0.32;97.86;98775.47;5064689;28;20461;-71
2021/11/10 06:02:36;;;;;;;14.67;9.63;;;1.20;96.40;;;-0.28;97.67;98784.03;5070711;28;20542;-71
2021/11/10 06:05:03;;;;;;;14.20;9.67;;;1.20;95.70;;;-0.11;98.20;98779.97;5064398;28;20485;-72
2021/11/10 06:07:31;;;;;;;13.00;9.60;;;1.40;97.70;;;-0.08;97.61;98776.22;5071910;28;20454;-71
2021/11/10 06:09:58;;;;;;;18.70;10.53;;;1.40;95.70;;;-0.42;97.31;98729.41;5049731;28;20466;-72
2021/11/10 06:12:25;;;;;;;13.00;9.77;;;1.40;94.20;;;-0.06;97.01;98796.38;5063214;28;20508;-71
2021/11/10 06:14:52;;;;;;;11.40;9.07;;;1.40;93.80;;;0.02;96.69;98781.59;5067913;28;20540;-71
2021/11/10 06:17:19;;;;;;;12.30;9.10;;;1.50;93.70;;;0.04;96.94;98782.31;5049196;28;20457;-70
2021/11/10 06:19:46;;;;;;;12.70;9.63;;;1.50;93.40;;;-0.13;96.36;98789.88;5063897;28;20453;-72
2021/11/10 06:22:13;;;;;;;11.33;9.10;;;1.50;92.20;;;-0.08;97.28;98793.00;5067019;28;20489;-71
2021/11/10 06:24:41;;;;;;;12.13;9.50;;;1.40;93.80;;;0.34;96.45;98781.53;5048363;28;20546;-71
2021/11/10 06:27:09;;;;;;;14.07;10.70;;;1.80;93.70;;;0.10;95.58;98774.66;5060851;28;20543;-72
2021/11/10 06:29:36;;;;;;;12.30;9.23;;;1.70;91.50;;;0.04;96.42;98777.00;5065228;28;20935;-70
2021/11/10 06:32:03;;;;;;;11.77;9.00;;;1.60;91.90;;;0.02;95.65;98786.91;5060889;28;20475;-70
2021/11/10 06:34:30;;;;;;;10.30;9.17;;;1.60;91.80;;;-0.01;96.13;98783.53;5047892;28;20449;-70
2021/11/10 06:36:57;;;;;;;11.23;9.23;;;1.60;92.00;;;0.12;95.64;98788.66;5065560;28;20639;-71
2021/11/10 06:39:24;;;;;;;12.30;8.50;;;1.70;92.40;;;0.27;95.75;98794.50;5054404;28;20560;-72
2021/11/10 06:41:53;;;;;;;13.30;9.20;;;1.70;92.70;;;0.10;96.01;98793.25;5074923;28;20476;-70
2021/11/10 06:44:20;;;;;;;11.77;9.00;;;1.70;91.70;;;0.15;95.39;98787.56;5068099;28;20464;-71
2021/11/10 06:46:46;;;;;;;10.77;9.67;;;1.70;92.00;;;0.04;96.04;98790.28;5065046;28;20553;-71
2021/11/10 06:49:14;;;;;;;16.03;9.63;;;1.70;91.50;;;0.37;96.14;98791.03;5048143;28;20471;-71
2021/11/10 06:51:41;;;;;;;14.70;9.50;;;1.80;92.70;;;0.08;95.39;98795.22;5046283;28;20493;-73
2021/11/10 06:54:09;;;;;;;10.37;8.77;;;1.70;91.10;;;0.07;95.57;98795.31;5068266;28;20468;-75
2021/11/10 06:56:36;;;;;;;12.40;10.27;;;1.70;91.30;;;0.01;95.64;98801.16;5048254;28;20441;-73
2021/11/10 06:59:04;;;;;;;14.80;10.43;;;1.70;91.50;;;0.07;95.56;98792.66;5065494;28;21064;-76
2021/11/10 07:01:31;;;;;;;13.40;9.10;;;1.70;91.90;;;0.17;95.50;98820.16;5044527;28;20453;-74
2021/11/10 07:03:58;;;;;;;13.10;10.30;;;1.70;91.60;;;0.43;94.60;98809.16;5065960;28;20481;-74
2021/11/10 07:06:25;;;;;;;14.90;10.17;;;1.90;91.40;;;-0.20;94.38;98732.94;5061836;28;20577;-75
2021/11/10 07:08:52;;;;;;;13.17;10.70;;;1.90;90.40;;;0.44;93.97;98818.81;5050133;28;20563;-77
2021/11/10 07:11:19;;;;;;;16.63;9.83;;;2.00;90.10;;;0.38;93.50;98819.31;5062051;28;20528;-76
2021/11/10 07:13:47;;;;;;;14.60;9.83;;;2.00;89.50;;;0.38;94.14;98814.84;5050213;28;20550;-69
2021/11/10 07:16:15;;;;;;;14.40;10.33;;;2.00;89.70;;;0.52;94.52;98824.31;5048513;28;20441;-71
2021/11/10 07:18:42;;;;;;;15.20;11.23;;;2.10;90.30;;;0.65;93.21;98820.59;5041855;28;20545;-70
2021/11/10 07:21:09;;;;;;;24.07;11.13;;;2.20;89.10;;;0.64;93.34;98824.22;5063125;28;20491;-70
2021/11/10 07:23:37;;;;;;;15.40;9.50;;;2.20;88.70;;;0.71;92.75;98830.72;5045527;28;21033;-71
2021/11/10 07:26:04;;;;;;;13.47;10.90;;;2.20;88.30;;;0.60;93.03;98823.66;5063063;28;20449;-72
2021/11/10 07:28:32;;;;;;;16.13;10.40;;;2.20;88.00;;;0.71;92.74;98825.41;5070616;28;20511;-70
2021/11/10 07:30:59;;;;;;;16.20;11.73;;;2.30;88.30;;;0.80;92.51;98835.22;5047444;28;20849;-70
2021/11/10 07:33:27;;;;;;;13.60;11.40;;;2.30;88.10;;;0.80;91.83;98821.09;5049266;28;20558;-70
2021/11/10 07:35:55;;;;;;;15.10;11.47;;;2.40;86.70;;;0.87;91.71;98821.41;5066138;28;20456;-70
2021/11/10 07:38:25;;;;;;;16.60;10.87;;;2.50;85.50;;;0.88;92.00;98815.13;5057322;28;20543;-71
2021/11/10 07:40:53;;;;;;;14.33;10.63;;;2.50;86.30;;;0.97;91.64;98815.16;5066177;28;20461;-72
2021/11/10 07:43:22;;;;;;;13.90;10.10;;;2.50;86.20;;;1.05;90.78;98821.59;5050559;28;20450;-72
2021/11/10 07:45:54;;;;;;;13.97;11.07;;;2.60;84.70;;;0.97;90.99;98815.16;5063964;28;20467;-72
2021/11/10 07:48:21;;;;;;;12.97;10.70;;;2.60;84.40;;;1.23;90.59;98813.81;5059833;28;20957;-71
2021/11/10 07:50:50;;;;;;;12.93;10.10;;;2.70;84.20;;;0.96;90.21;98772.69;5064260;28;20887;-70
2021/11/10 07:53:17;;;;;;;13.10;11.27;;;2.70;83.60;;;1.20;90.41;98814.09;5047726;28;20477;-71
2021/11/10 07:55:44;;;;;;;17.53;10.70;;;2.80;83.40;;;1.37;89.81;98808.13;5047498;28;20519;-71
2021/11/10 07:58:11;;;;;;;14.80;10.30;;;2.90;84.10;;;1.38;89.73;98800.97;5067363;28;20560;-71
2021/11/10 08:00:40;;;;;;;16.23;10.97;;;3.00;83.00;;;1.80;88.11;98810.56;5055481;28;20463;-70
2021/11/10 08:03:08;;;;;;;16.90;9.60;;;3.10;82.40;;;1.77;87.73;98805.50;5048612;28;20465;-71
2021/11/10 08:05:36;;;;;;;12.37;10.20;;;3.20;81.50;;;1.90;87.43;98805.22;5061446;28;20538;-71
2021/11/10 08:08:05;;;;;;;14.27;10.10;;;3.40;80.60;;;2.10;86.80;98800.72;5046515;28;20544;-70
2021/11/10 08:10:32;;;;;;;14.77;10.77;;;3.50;81.00;;;2.10;86.13;98792.72;5064710;28;20563;-70
2021/11/10 08:12:59;;;;;;;14.83;11.03;;;3.60;79.80;;;2.15;85.81;98798.47;5066185;28;20470;-70
2021/11/10 08:15:26;;;;;;;14.77;10.93;;;3.70;78.80;;;2.12;86.27;98804.94;5042531;28;20499;-70
2021/11/10 08:17:53;;;;;;;15.70;10.40;;;3.60;79.10;;;2.09;85.70;98793.72;5046546;28;20480;-70
2021/11/10 08:20:20;;;;;;;14.00;11.17;;;3.70;78.60;;;2.14;86.43;98811.97;5063695;28;20477;-70
2021/11/10 08:22:49;;;;;;;11.23;10.07;;;3.70;78.70;;;2.07;86.39;98811.69;5065104;28;20563;-71
2021/11/10 08:25:19;;;;;;;14.90;11.37;;;3.70;78.60;;;2.08;86.37;98813.38;5048459;28;20562;-69
2021/11/10 08:27:46;;;;;;;13.70;11.20;;;3.70;78.50;;;2.31;86.69;98807.72;5065531;28;20578;-69
2021/11/10 08:30:17;;;;;;;13.63;10.50;;;3.80;79.30;;;2.62;84.67;98789.66;5067380;28;20504;-70
2021/11/10 08:32:45;;;;;;;15.57;11.50;;;4.00;78.30;;;2.66;84.20;98806.25;5067045;28;20459;-70
2021/11/10 08:35:12;;;;;;;13.00;10.10;;;4.10;77.50;;;2.58;83.90;98806.13;5068167;28;20457;-69
2021/11/10 08:37:40;;;;;;;22.57;11.93;;;4.20;76.80;;;2.61;84.68;98801.34;5045808;28;20544;-69
2021/11/10 08:40:11;;;;;;;12.70;9.90;;;4.10;77.30;;;2.69;84.51;98800.59;5041978;28;20567;-69
2021/11/10 08:42:40;;;;;;;15.87;10.60;;;4.20;77.10;;;2.64;84.72;98801.03;5048314;28;20938;-69
2021/11/10 08:45:10;;;;;;;18.60;11.07;;;4.10;77.40;;;2.97;84.16;98801.47;5071207;28;20881;-69
2021/11/10 08:47:38;;;;;;;16.07;10.60;;;4.30;77.60;;;2.90;83.51;98797.72;5050636;28;20975;-69
2021/11/10 08:50:08;;;;;;;26.53;10.40;;;4.40;77.10;;;2.95;83.39;98805.25;5045437;28;20519;-69
2021/11/10 08:52:35;;;;;;;16.00;10.70;;;4.40;76.50;;;3.26;82.73;98802.31;5045907;28;20460;-69
2021/11/10 08:55:03;;;;;;;12.60;9.57;;;4.60;76.40;;;3.30;82.07;98801.03;5063655;28;20462;-69
2021/11/10 08:57:30;;;;;;;11.23;9.40;;;4.70;75.70;;;3.48;81.75;98794.88;5054302;28;20472;-69
2021/11/10 08:59:58;;;;;;;12.70;9.20;;;4.80;75.90;;;3.39;81.57;98794.78;5064745;28;20560;-69
2021/11/10 09:02:25;;;;;;;12.37;9.90;;;4.90;75.00;;;3.46;81.51;98804.88;5068011;28;20457;-69
2021/11/10 09:04:52;;;;;;;12.90;9.30;;;5.00;74.90;;;3.64;80.01;98796.88;5074892;28;20448;-69
2021/11/10 09:07:19;;;;;;;10.47;9.30;;;5.10;73.80;;;3.76;79.99;98802.84;5045545;28;20452;-69
2021/11/10 09:09:46;;;;;;;12.03;9.20;;;5.10;73.80;;;3.96;80.24;98799.00;5070040;28;20543;-69
2021/11/10 09:12:13;;;;;;;12.40;9.33;;;5.30;73.80;;;4.38;77.50;98797.50;5069656;28;20468;-68
2021/11/10 09:14:40;;;;;;;15.53;10.60;;;5.60;72.50;;;4.31;77.41;98791.09;5052311;28;20561;-68
2021/11/10 09:17:10;;;;;;;15.57;9.23;;;5.80;71.40;;;4.05;78.17;98791.06;5066964;28;20906;-69
2021/11/10 09:19:37;;;;;;;12.33;10.13;;;5.70;70.90;;;4.19;78.81;98787.84;5068600;28;20474;-69
2021/11/10 09:22:04;;;;;;;15.33;10.40;;;5.60;71.80;;;4.18;79.27;98780.81;5053944;28;21031;-70
2021/11/10 09:24:31;;;;;;;11.97;9.13;;;5.60;72.10;;;4.26;78.43;98782.72;5072917;28;20485;-69
2021/11/10 09:26:58;;;;;;;9.80;8.80;;;5.70;71.50;;;4.28;77.53;98785.22;5075329;28;21017;-69
2021/11/10 09:29:25;;;;;;;13.03;8.83;;;5.70;70.70;;;4.48;76.88;98786.72;5051543;28;20452;-68
2021/11/10 09:31:53;;;;;;;15.50;9.97;;;5.80;69.90;;;4.93;75.18;98786.63;5061779;28;20497;-68
2021/11/10 09:34:21;;;;;;;10.80;9.70;;;6.10;69.50;;;5.03;74.35;98791.88;5050624;28;20461;-68
2021/11/10 09:36:49;;;;;;;17.80;12.70;;;6.30;69.10;;;5.06;74.61;98784.31;5060877;28;20548;-68
2021/11/10 09:39:17;;;;;;;12.33;9.97;;;6.40;68.40;;;4.99;74.92;98782.44;5069289;28;20457;-70
2021/11/10 09:41:47;;;;;;;12.53;10.77;;;6.40;68.70;;;5.25;73.71;98787.75;5046405;28;20457;-69
2021/11/10 09:44:15;;;;;;;14.07;10.30;;;6.60;67.50;;;5.29;73.64;98785.56;5063151;28;20541;-68
2021/11/10 09:46:42;;;;;;;16.27;10.80;;;6.60;67.00;;;5.14;73.71;98780.84;5048875;28;20464;-69
2021/11/10 09:49:12;;;;;;;13.50;10.57;;;6.70;66.50;;;5.13;73.91;98781.00;5068113;28;20469;-69
2021/11/10 09:51:42;;;;;;;12.77;11.37;;;6.60;67.00;;;5.30;73.98;98780.06;5058742;28;20651;-69
2021/11/10 09:54:11;;;;;;;13.07;11.30;;;6.70;67.00;;;5.39;73.75;98779.09;5066118;28;20472;-69
2021/11/10 09:56:39;;;;;;;18.13;11.40;;;6.70;66.70;;;5.24;72.89;98775.38;5068927;28;20526;-69
2021/11/10 09:59:07;;;;;;;13.53;11.20;;;6.60;65.90;;;5.39;73.21;98768.38;5065136;28;20465;-70
2021/11/10 10:01:35;;;;;;;12.73;11.43;;;6.70;66.20;;;5.49;72.67;98770.91;5043965;28;20446;-69
2021/11/10 10:04:02;;;;;;;13.73;11.80;;;6.80;65.70;;;5.37;72.67;98773.03;5063529;28;20815;-69
2021/11/10 10:06:30;;;;;;;14.63;11.80;;;6.80;65.80;;;5.68;71.40;98780.47;5065559;28;20548;-69
2021/11/10 10:08:58;;;;;;;12.33;11.03;;;7.00;65.40;;;5.47;72.50;98780.97;5052661;28;20783;-68
2021/11/10 10:11:28;;;;;;;13.00;11.23;;;6.90;65.40;;;5.64;72.27;98779.13;5069692;28;20473;-68
2021/11/10 10:13:55;;;;;;;14.80;12.23;;;7.00;65.60;;;5.48;73.03;98774.59;5068428;28;20956;-69
2021/11/10 10:16:24;;;;;;;14.23;12.00;;;6.90;65.50;;;5.77;72.76;98765.25;5063657;28;20746;-69
2021/11/10 10:18:52;;;;;;;14.33;12.83;;;7.00;65.60;;;5.72;71.88;98772.13;5064279;28;20971;-68
2021/11/10 10:21:19;;;;;;;15.90;12.23;;;7.00;65.30;;;5.65;72.96;98778.13;5045250;28;20544;-69
2021/11/10 10:23:51;;;;;;;15.40;12.90;;;7.00;65.50;;;5.47;73.11;98764.03;5068503;28;20812;-69
2021/11/10 10:26:22;;;;;;;15.63;12.57;;;6.90;65.50;;;5.67;73.13;98762.72;5067534;28;20552;-69